Time;durP1;ratioP1;P1;durP2;ratioP2;P2;SDS_P1;SDS_P2;PMS_P1;PMS_P2;Temp;Humidity;BMP_temperature;BMP_pressure;BME280_temperature;BME280_humidity;BME280_pressure;Samples;Min_cycle;Max_cycle;Signal;HPM_P1;HPM_P2
2023/06/11 00:00:49;;;;;;;9.48;4.47;;;20.30;99.90;;;;;;6308219;22;20062;-81
2023/06/11 00:03:21;;;;;;;10.55;4.55;;;20.30;99.90;;;;;;6280857;22;20493;-81
2023/06/11 00:05:47;;;;;;;;;;;20.30;99.90;;;;;;6280867;22;19996;-82
2023/06/11 00:08:12;;;;;;;11.02;4.97;;;20.20;99.90;;;;;;6307652;22;20247;-81
2023/06/11 00:10:38;;;;;;;8.70;4.45;;;20.20;99.90;;;;;;6280410;22;20006;-80
2023/06/11 00:13:04;;;;;;;9.73;4.88;;;20.10;99.90;;;;;;6280704;22;20003;-81
2023/06/11 00:15:30;;;;;;;8.55;4.53;;;20.10;99.90;;;;;;6280685;22;20000;-81
2023/06/11 00:17:56;;;;;;;13.90;4.30;;;20.10;99.90;;;;;;6307457;22;20007;-82
2023/06/11 00:20:22;;;;;;;9.43;4.57;;;20.10;99.90;;;;;;6280397;22;19999;-81
2023/06/11 00:22:48;;;;;;;8.07;4.60;;;20.10;99.90;;;;;;6280282;22;20000;-81
2023/06/11 00:25:14;;;;;;;13.82;5.00;;;20.10;99.90;;;;;;6279866;22;20013;-81
2023/06/11 00:27:40;;;;;;;8.07;4.70;;;20.10;99.90;;;;;;6280153;22;20003;-82
2023/06/11 00:30:06;;;;;;;11.38;4.85;;;20.10;99.90;;;;;;6280292;22;20048;-81
2023/06/11 00:32:34;;;;;;;10.10;4.60;;;20.10;99.90;;;;;;6307118;22;19995;-82
2023/06/11 00:35:01;;;;;;;9.00;4.25;;;20.10;99.90;;;;;;6279887;22;20045;-81
2023/06/11 00:37:27;;;;;;;9.13;5.00;;;20.10;99.90;;;;;;6309078;22;20035;-82
2023/06/11 00:39:53;;;;;;;12.73;4.90;;;20.10;99.90;;;;;;6281706;22;19999;-81
2023/06/11 00:42:21;;;;;;;7.57;4.75;;;20.10;99.90;;;;;;6282101;22;20032;-82
2023/06/11 00:44:47;;;;;;;11.20;5.90;;;20.10;99.90;;;;;;6281813;22;20003;-81
2023/06/11 00:47:15;;;;;;;8.80;4.45;;;20.10;99.90;;;;;;6308888;22;19999;-81
2023/06/11 00:49:42;;;;;;;11.70;4.70;;;20.10;99.90;;;;;;6281858;22;20007;-81
2023/06/11 00:52:13;;;;;;;9.45;5.00;;;20.20;99.90;;;;;;6282069;22;19995;-82
2023/06/11 00:54:40;;;;;;;13.70;4.55;;;20.20;99.90;;;;;;6309034;22;20019;-85
2023/06/11 00:57:06;;;;;;;9.80;4.72;;;20.20;99.90;;;;;;6281771;22;20323;-83
2023/06/11 00:59:37;;;;;;;10.10;5.15;;;20.10;99.90;;;;;;6309302;22;19999;-83
2023/06/11 01:02:43;;;;;;;11.43;5.43;;;20.00;99.90;;;;;;6281684;22;20369;-83
2023/06/11 01:05:12;;;;;;;9.95;5.85;;;20.00;99.90;;;;;;6281744;22;20003;-84
2023/06/11 01:07:50;;;;;;;9.23;5.80;;;20.00;99.90;;;;;;6281309;22;20010;-84
2023/06/11 01:10:20;;;;;;;10.30;5.72;;;19.90;99.90;;;;;;6281781;22;20172;-85
2023/06/11 01:12:46;;;;;;;11.98;5.90;;;19.90;99.90;;;;;;6281474;22;20081;-84
2023/06/11 01:15:13;;;;;;;13.55;6.75;;;19.90;99.90;;;;;;6281312;22;19995;-84
2023/06/11 01:17:48;;;;;;;10.88;6.35;;;19.80;99.90;;;;;;6281747;22;20086;-84
2023/06/11 01:20:34;;;;;;;8.88;5.60;;;19.80;99.90;;;;;;6308877;22;19995;-83
2023/06/11 01:23:20;;;;;;;9.45;5.13;;;19.70;99.90;;;;;;6309439;22;19995;-84
2023/06/11 01:26:01;;;;;;;8.80;5.78;;;19.70;99.90;;;;;;6307671;22;20000;-84
2023/06/11 01:28:33;;;;;;;14.48;5.32;;;19.70;99.90;;;;;;6281793;22;20007;-84
2023/06/11 01:31:04;;;;;;;13.70;5.57;;;19.60;99.90;;;;;;6281931;22;20000;-84
2023/06/11 01:33:35;;;;;;;10.88;6.32;;;19.60;99.90;;;;;;6281979;22;20079;-84
2023/06/11 01:36:01;;;;;;;11.70;5.78;;;19.60;99.90;;;;;;6281585;22;19999;-84
2023/06/11 01:38:34;;;;;;;14.30;6.32;;;19.60;99.90;;;;;;6308746;22;20289;-84
2023/06/11 01:41:01;;;;;;;11.77;6.35;;;19.70;99.90;;;;;;6281830;22;20004;-84
2023/06/11 01:43:28;;;;;;;11.25;6.60;;;19.60;99.90;;;;;;6308881;22;19992;-84
2023/06/11 01:45:55;;;;;;;11.27;6.00;;;19.70;99.90;;;;;;6281274;22;20000;-84
2023/06/11 01:48:21;;;;;;;10.50;5.78;;;19.50;99.90;;;;;;6281680;22;20079;-83
2023/06/11 01:50:47;;;;;;;11.77;6.80;;;19.70;99.90;;;;;;6280962;22;20019;-84
2023/06/11 01:53:14;;;;;;;9.85;5.97;;;19.70;99.90;;;;;;6281012;22;20086;-83
2023/06/11 01:55:40;;;;;;;10.50;6.57;;;19.70;99.90;;;;;;6306727;22;20003;-83
2023/06/11 01:58:05;;;;;;;13.35;6.43;;;19.70;99.90;;;;;;6281330;22;20416;-84
2023/06/11 02:00:31;;;;;;;9.45;6.63;;;19.60;99.90;;;;;;6280571;22;20017;-83
2023/06/11 02:02:59;;;;;;;9.90;6.85;;;19.70;99.90;;;;;;6280881;22;20010;-83
2023/06/11 02:05:25;;;;;;;15.07;6.93;;;19.60;99.90;;;;;;6281089;22;20003;-83
2023/06/11 02:07:51;;;;;;;11.55;6.63;;;19.70;99.90;;;;;;6281197;22;20370;-84
2023/06/11 02:10:17;;;;;;;14.10;6.72;;;19.70;99.90;;;;;;6280578;22;19996;-83
2023/06/11 02:12:42;;;;;;;10.00;6.38;;;19.70;99.90;;;;;;6281110;22;20446;-84
2023/06/11 02:15:08;;;;;;;11.35;6.60;;;19.60;99.90;;;;;;6281155;22;19999;-83
2023/06/11 02:17:34;;;;;;;12.80;6.85;;;19.50;99.90;;;;;;6280583;22;20010;-84
2023/06/11 02:20:00;;;;;;;13.02;7.00;;;19.50;99.90;;;;;;6308177;22;19998;-83
2023/06/11 02:22:26;;;;;;;11.15;7.05;;;19.50;99.90;;;;;;6281107;22;19999;-82
2023/06/11 02:24:52;;;;;;;10.32;7.18;;;19.50;99.90;;;;;;6280808;22;20034;-83
2023/06/11 02:27:17;;;;;;;9.95;6.57;;;19.50;99.90;;;;;;6308737;22;19999;-83
2023/06/11 02:29:43;;;;;;;14.88;7.28;;;19.50;99.90;;;;;;6281294;22;20000;-83
2023/06/11 02:32:10;;;;;;;13.35;6.75;;;19.50;99.90;;;;;;6281121;22;20026;-82
2023/06/11 02:34:36;;;;;;;13.95;7.65;;;19.50;99.90;;;;;;6281319;22;20000;-82
2023/06/11 02:37:02;;;;;;;13.75;6.85;;;19.50;99.90;;;;;;6281172;22;20018;-84
2023/06/11 02:39:28;;;;;;;12.25;7.18;;;19.50;99.90;;;;;;6280967;22;20038;-84
2023/06/11 02:41:53;;;;;;;10.45;6.90;;;19.40;99.90;;;;;;6281193;22;20082;-84
2023/06/11 02:44:21;;;;;;;12.07;6.38;;;19.40;99.90;;;;;;6308516;22;20044;-83
2023/06/11 02:46:47;;;;;;;13.10;7.15;;;19.40;99.90;;;;;;6280793;22;20032;-83
2023/06/11 02:49:12;;;;;;;12.75;6.95;;;19.40;99.90;;;;;;6281120;22;20426;-82
2023/06/11 02:51:38;;;;;;;13.52;6.68;;;19.40;99.90;;;;;;6280221;22;20015;-83
2023/06/11 02:54:04;;;;;;;9.00;6.32;;;19.30;99.90;;;;;;6280625;22;20003;-83
2023/06/11 02:56:30;;;;;;;10.18;6.53;;;19.30;99.90;;;;;;6280608;22;20003;-82
2023/06/11 02:58:56;;;;;;;11.48;7.03;;;19.30;99.90;;;;;;6280047;22;19999;-83
2023/06/11 03:01:21;;;;;;;11.20;6.35;;;19.30;99.90;;;;;;6280630;22;20056;-84
2023/06/11 03:03:47;;;;;;;10.73;6.70;;;19.30;99.90;;;;;;6280519;22;19995;-83
2023/06/11 03:06:13;;;;;;;11.00;6.55;;;19.20;99.90;;;;;;6280136;22;20006;-83
2023/06/11 03:08:39;;;;;;;12.93;8.00;;;19.30;99.90;;;;;;6280714;22;20474;-83
2023/06/11 03:11:05;;;;;;;15.38;8.68;;;19.20;99.90;;;;;;6280700;22;20419;-83
2023/06/11 03:13:30;;;;;;;16.08;7.75;;;19.20;99.90;;;;;;6279888;22;20006;-82
2023/06/11 03:15:56;;;;;;;10.98;7.10;;;19.20;99.90;;;;;;6280561;22;19995;-83
2023/06/11 03:18:22;;;;;;;9.80;7.00;;;19.20;99.90;;;;;;6307601;22;20007;-83
2023/06/11 03:20:48;;;;;;;12.95;6.10;;;19.20;99.90;;;;;;6280201;22;20077;-83
2023/06/11 03:23:14;;;;;;;9.45;6.40;;;19.20;99.90;;;;;;6307492;22;19996;-84
2023/06/11 03:25:41;;;;;;;10.13;6.38;;;19.20;99.90;;;;;;6280312;22;20432;-84
2023/06/11 03:28:07;;;;;;;16.85;7.07;;;19.20;99.90;;;;;;6279867;22;20049;-83
2023/06/11 03:30:33;;;;;;;12.75;6.63;;;19.20;99.90;;;;;;6280460;22;20003;-83
2023/06/11 03:32:59;;;;;;;14.48;6.70;;;19.20;99.90;;;;;;6280463;22;20082;-84
2023/06/11 03:35:25;;;;;;;17.27;7.32;;;19.30;99.90;;;;;;6280171;22;20052;-84
2023/06/11 03:37:51;;;;;;;12.82;6.22;;;19.30;99.90;;;;;;6254588;22;20043;-83
2023/06/11 03:40:18;;;;;;;12.70;6.40;;;19.30;99.90;;;;;;6280087;22;20036;-84
2023/06/11 03:42:44;;;;;;;9.38;6.20;;;19.40;99.90;;;;;;6305841;22;20006;-84
2023/06/11 03:45:10;;;;;;;14.50;7.13;;;19.40;99.90;;;;;;6280057;22;20078;-84
2023/06/11 03:47:35;;;;;;;13.27;6.75;;;19.40;99.90;;;;;;6280381;22;20006;-84
2023/06/11 03:50:04;;;;;;;13.38;7.45;;;19.40;99.90;;;;;;6280036;22;20390;-84
2023/06/11 03:52:30;;;;;;;13.63;7.88;;;19.50;99.90;;;;;;6307732;22;20007;-84
2023/06/11 03:54:58;;;;;;;10.57;6.55;;;19.50;99.90;;;;;;6305207;22;20034;-83
2023/06/11 03:57:24;;;;;;;11.55;6.93;;;19.50;99.90;;;;;;6305472;22;20011;-84
2023/06/11 03:59:50;;;;;;;9.93;6.55;;;19.40;99.90;;;;;;6307495;22;20002;-83
2023/06/11 04:02:16;;;;;;;12.90;6.70;;;19.40;99.90;;;;;;6305780;22;19995;-84
2023/06/11 04:04:41;;;;;;;18.25;6.82;;;19.30;99.90;;;;;;6305631;22;20007;-83
2023/06/11 04:07:07;;;;;;;12.50;7.03;;;19.30;99.90;;;;;;6307790;22;20312;-83
2023/06/11 04:09:33;;;;;;;9.93;6.78;;;19.30;99.90;;;;;;6305767;22;20083;-83
2023/06/11 04:11:59;;;;;;;11.95;7.53;;;19.20;99.90;;;;;;6308230;22;19996;-84
2023/06/11 04:14:25;;;;;;;15.98;8.23;;;19.20;99.90;;;;;;6308120;22;20034;-84
2023/06/11 04:16:50;;;;;;;12.55;7.40;;;19.30;99.90;;;;;;6307852;22;20011;-83
2023/06/11 04:19:18;;;;;;;14.52;7.38;;;19.40;99.90;;;;;;6308460;22;20074;-84
2023/06/11 04:21:44;;;;;;;13.38;8.15;;;19.40;99.90;;;;;;6308350;22;20003;-84
2023/06/11 04:24:10;;;;;;;15.95;7.32;;;19.40;99.90;;;;;;6307885;22;20003;-84
2023/06/11 04:26:36;;;;;;;13.27;6.75;;;19.30;99.90;;;;;;6308439;22;20006;-84
2023/06/11 04:29:03;;;;;;;10.75;7.25;;;19.40;99.90;;;;;;6308376;22;19999;-84
2023/06/11 04:31:29;;;;;;;14.95;7.28;;;19.40;99.90;;;;;;6308983;22;20424;-84
2023/06/11 04:33:56;;;;;;;15.07;7.35;;;19.50;99.90;;;;;;6308331;22;19999;-84
2023/06/11 04:36:27;;;;;;;13.77;6.60;;;19.40;99.90;;;;;;6308291;22;19999;-83
2023/06/11 04:38:53;;;;;;;13.73;7.15;;;19.40;99.90;;;;;;6308007;22;20022;-83
2023/06/11 04:41:23;;;;;;;20.90;8.15;;;19.40;99.90;;;;;;6308529;22;20003;-84
2023/06/11 04:43:49;;;;;;;12.52;6.53;;;19.40;99.90;;;;;;6307761;22;19999;-84
2023/06/11 04:46:15;;;;;;;11.73;7.07;;;19.40;99.90;;;;;;6307893;22;19996;-84
2023/06/11 04:48:41;;;;;;;10.70;7.63;;;19.40;99.90;;;;;;6308250;22;20305;-84
2023/06/11 04:51:07;;;;;;;13.15;7.18;;;19.40;99.90;;;;;;6307410;22;20008;-85
2023/06/11 04:53:37;;;;;;;12.60;7.13;;;19.40;99.90;;;;;;6308097;22;20393;-84
2023/06/11 04:56:03;;;;;;;15.32;8.52;;;19.30;99.90;;;;;;6307882;22;20484;-84
2023/06/11 04:58:30;;;;;;;12.90;7.93;;;19.30;99.90;;;;;;6307502;22;20458;-84
2023/06/11 05:00:57;;;;;;;14.77;7.32;;;19.30;99.90;;;;;;6281685;22;19995;-84
2023/06/11 05:03:27;;;;;;;12.30;7.88;;;19.30;99.90;;;;;;6282161;22;20029;-84
2023/06/11 05:05:54;;;;;;;17.63;8.07;;;19.30;99.90;;;;;;6281746;22;20053;-85
2023/06/11 05:08:28;;;;;;;14.35;7.95;;;19.30;99.90;;;;;;6309109;22;20006;-84
2023/06/11 05:10:57;;;;;;;14.23;8.02;;;19.30;99.90;;;;;;6282191;22;20009;-83
2023/06/11 05:13:26;;;;;;;15.45;7.57;;;19.30;99.90;;;;;;6333350;22;20006;-83
2023/06/11 05:15:56;;;;;;;18.08;8.48;;;19.30;99.90;;;;;;6307576;22;20078;-83
2023/06/11 05:18:23;;;;;;;15.10;7.70;;;19.30;99.90;;;;;;6307861;22;20011;-84
2023/06/11 05:20:49;;;;;;;14.00;8.15;;;19.40;99.90;;;;;;6307538;22;20327;-86
2023/06/11 05:23:18;;;;;;;11.70;7.47;;;19.40;99.90;;;;;;6307191;22;20033;-84
2023/06/11 05:25:47;;;;;;;12.32;7.15;;;19.50;99.90;;;;;;6307421;22;20004;-84
2023/06/11 05:28:15;;;;;;;11.20;6.97;;;19.50;99.90;;;;;;6307877;22;20030;-85
2023/06/11 05:30:45;;;;;;;14.65;8.02;;;19.60;99.90;;;;;;6307980;22;20005;-85
2023/06/11 05:33:13;;;;;;;15.35;8.70;;;19.60;99.90;;;;;;6307914;22;20067;-84
2023/06/11 05:35:40;;;;;;;13.63;8.02;;;19.70;99.90;;;;;;6307790;22;20088;-83
2023/06/11 05:38:09;;;;;;;12.07;7.63;;;19.70;99.90;;;;;;6307826;22;20136;-85
2023/06/11 05:40:36;;;;;;;11.10;7.78;;;19.70;99.90;;;;;;6307508;22;20053;-85
2023/06/11 05:43:06;;;;;;;14.05;7.85;;;19.60;99.90;;;;;;6308188;22;20010;-85
2023/06/11 05:45:32;;;;;;;14.18;7.55;;;19.60;99.90;;;;;;6309260;22;19998;-84
2023/06/11 05:47:59;;;;;;;12.68;7.68;;;19.70;99.90;;;;;;6306891;22;20003;-85
2023/06/11 05:50:25;;;;;;;11.30;6.93;;;19.60;99.90;;;;;;6307331;22;20019;-84
2023/06/11 05:52:51;;;;;;;11.70;7.63;;;19.60;99.90;;;;;;6307550;22;19996;-85
2023/06/11 05:55:17;;;;;;;14.52;7.85;;;19.60;99.90;;;;;;6307014;22;20010;-86
2023/06/11 05:57:43;;;;;;;13.85;8.23;;;19.60;99.90;;;;;;6307139;22;20034;-86
2023/06/11 06:00:15;;;;;;;12.40;7.93;;;19.50;99.90;;;;;;6307078;22;20022;-84
2023/06/11 06:02:41;;;;;;;11.43;8.20;;;19.50;99.90;;;;;;6306911;22;20479;-84
2023/06/11 06:05:08;;;;;;;12.90;7.80;;;19.50;99.90;;;;;;6306990;22;19999;-85
2023/06/11 06:07:34;;;;;;;14.23;8.88;;;19.50;99.90;;;;;;6307318;22;20011;-86
2023/06/11 06:10:01;;;;;;;14.57;8.32;;;19.50;99.90;;;;;;6306753;22;20408;-84
2023/06/11 06:12:26;;;;;;;12.80;8.60;;;19.50;99.90;;;;;;6307187;22;20499;-86
2023/06/11 06:14:52;;;;;;;12.27;7.30;;;19.50;99.90;;;;;;6306818;22;20084;-86
2023/06/11 06:17:18;;;;;;;13.60;7.82;;;19.40;99.90;;;;;;6306790;22;20010;-86
2023/06/11 06:19:44;;;;;;;13.70;7.20;;;19.40;99.90;;;;;;6307549;22;20049;-84
2023/06/11 06:22:10;;;;;;;13.32;6.88;;;19.30;99.90;;;;;;6307124;22;20082;-86
2023/06/11 06:24:35;;;;;;;13.65;7.20;;;19.30;99.90;;;;;;6307238;22;20010;-85
2023/06/11 06:27:01;;;;;;;11.88;7.18;;;19.20;99.90;;;;;;6307237;22;20042;-84
2023/06/11 06:29:27;;;;;;;14.98;7.78;;;19.30;99.90;;;;;;6306859;22;19999;-84
2023/06/11 06:31:53;;;;;;;11.75;8.18;;;19.30;99.90;;;;;;6306832;22;20420;-85
2023/06/11 06:34:18;;;;;;;13.63;7.30;;;19.30;99.90;;;;;;6306598;22;20009;-84
2023/06/11 06:36:45;;;;;;;12.82;8.13;;;19.30;99.90;;;;;;6306557;22;19999;-84
2023/06/11 06:39:11;;;;;;;15.35;7.47;;;19.30;99.90;;;;;;6307021;22;20053;-85
2023/06/11 06:41:37;;;;;;;14.88;8.25;;;19.30;99.90;;;;;;6306754;22;20442;-85
2023/06/11 06:44:03;;;;;;;11.85;7.38;;;19.30;99.90;;;;;;6306678;22;20378;-84
2023/06/11 06:46:29;;;;;;;13.65;8.27;;;19.30;99.90;;;;;;6307236;22;20026;-84
2023/06/11 06:48:55;;;;;;;12.48;8.13;;;19.40;99.90;;;;;;6306943;22;20331;-85
2023/06/11 06:51:20;;;;;;;10.80;7.05;;;19.40;99.90;;;;;;6306217;22;20112;-85
2023/06/11 06:53:50;;;;;;;15.80;7.43;;;19.40;99.90;;;;;;6306851;22;19999;-84
2023/06/11 06:56:17;;;;;;;21.55;8.77;;;19.40;99.90;;;;;;6306903;22;20408;-84
2023/06/11 06:58:43;;;;;;;24.88;10.65;;;19.50;99.90;;;;;;6306359;22;20030;-84
2023/06/11 07:01:09;;;;;;;13.52;6.25;;;19.50;99.90;;;;;;6308513;22;20000;-84
2023/06/11 07:03:35;;;;;;;8.25;5.40;;;19.50;99.90;;;;;;6306649;22;19999;-83
2023/06/11 07:06:01;;;;;;;10.93;5.72;;;19.50;99.90;;;;;;6306594;22;20025;-83
2023/06/11 07:08:27;;;;;;;11.68;5.75;;;19.50;99.90;;;;;;6306664;22;19999;-82
2023/06/11 07:10:54;;;;;;;6.22;4.28;;;19.60;99.90;;;;;;6306345;22;20026;-83
2023/06/11 07:13:21;;;;;;;6.88;4.60;;;19.60;99.90;;;;;;6306809;22;20426;-83
2023/06/11 07:15:48;;;;;;;9.35;3.42;;;19.60;99.90;;;;;;6308207;22;19995;-82
2023/06/11 07:18:14;;;;;;;4.25;2.40;;;19.60;99.90;;;;;;6306283;22;20423;-82
2023/06/11 07:20:40;;;;;;;3.50;2.42;;;19.60;99.90;;;;;;6306305;22;20081;-83
2023/06/11 07:23:06;;;;;;;3.53;2.08;;;19.60;99.90;;;;;;6307752;22;20395;-82
2023/06/11 07:25:33;;;;;;;2.88;1.75;;;19.70;99.90;;;;;;6307371;22;20393;-83
2023/06/11 07:28:01;;;;;;;3.10;1.90;;;19.70;99.90;;;;;;6308391;22;19999;-83
2023/06/11 07:30:28;;;;;;;4.20;2.47;;;19.70;99.90;;;;;;6306565;22;19999;-83
2023/06/11 07:32:54;;;;;;;3.92;2.70;;;19.80;99.90;;;;;;6306320;22;20000;-83
2023/06/11 07:35:20;;;;;;;5.68;3.55;;;19.80;99.90;;;;;;6306698;22;20123;-82
2023/06/11 07:37:51;;;;;;;6.93;3.78;;;20.00;99.90;;;;;;6306508;22;20007;-84
2023/06/11 07:40:17;;;;;;;5.70;3.97;;;20.00;99.90;;;;;;6306330;22;20053;-82
2023/06/11 07:42:43;;;;;;;8.25;4.55;;;20.10;99.90;;;;;;6306656;22;20004;-83
2023/06/11 07:45:09;;;;;;;9.90;4.72;;;20.20;99.90;;;;;;6307331;22;20010;-82
2023/06/11 07:47:35;;;;;;;8.07;4.93;;;20.30;99.90;;;;;;6308437;22;20087;-82
2023/06/11 07:50:03;;;;;;;8.95;5.93;;;20.60;99.90;;;;;;6308262;22;20011;-83
2023/06/11 07:52:29;;;;;;;8.38;5.88;;;20.70;99.90;;;;;;6310298;22;19999;-83
2023/06/11 07:54:55;;;;;;;10.57;6.68;;;20.90;99.90;;;;;;6307840;22;20317;-83
2023/06/11 07:57:21;;;;;;;11.73;7.15;;;21.00;99.90;;;;;;6308671;22;20007;-82
2023/06/11 07:59:48;;;;;;;11.07;6.95;;;21.10;99.90;;;;;;6307690;22;20033;-83
2023/06/11 08:02:14;;;;;;;11.27;7.45;;;21.40;99.90;;;;;;6309935;22;20003;-82
2023/06/11 08:04:40;;;;;;;10.98;7.35;;;21.40;99.90;;;;;;6310043;22;19991;-84
2023/06/11 08:07:07;;;;;;;16.42;8.15;;;21.90;99.90;;;;;;6307953;22;20049;-84
2023/06/11 08:09:37;;;;;;;12.55;7.25;;;22.00;99.90;;;;;;6307932;22;20438;-83
2023/06/11 08:12:04;;;;;;;11.93;7.53;;;22.10;99.90;;;;;;6307984;22;20010;-83
2023/06/11 08:14:31;;;;;;;11.80;7.70;;;22.30;99.90;;;;;;6307662;22;20424;-83
2023/06/11 08:16:57;;;;;;;10.50;7.05;;;;;;;;;;6308230;22;20007;-83
2023/06/11 08:19:23;;;;;;;14.73;7.55;;;22.50;99.90;;;;;;6308356;22;20428;-83
2023/06/11 08:21:49;;;;;;;11.23;7.30;;;22.50;99.90;;;;;;6307413;22;19999;-83
2023/06/11 08:24:16;;;;;;;10.68;7.22;;;22.70;99.90;;;;;;6306670;22;20427;-83
2023/06/11 08:26:42;;;;;;;10.40;7.55;;;22.90;99.90;;;;;;6282017;22;19999;-83
2023/06/11 08:29:08;;;;;;;9.95;7.38;;;23.00;99.90;;;;;;6309197;22;19997;-84
2023/06/11 08:31:34;;;;;;;9.85;6.75;;;23.10;99.90;;;;;;6309885;22;20412;-84
2023/06/11 08:34:00;;;;;;;12.32;7.25;;;23.10;99.90;;;;;;6282421;22;20376;-84
2023/06/11 08:36:28;;;;;;;8.68;6.95;;;23.30;99.90;;;;;;6282021;22;20006;-84
2023/06/11 08:38:54;;;;;;;9.35;6.68;;;23.60;99.90;;;;;;6309844;22;20010;-84
2023/06/11 08:41:20;;;;;;;10.68;6.80;;;23.70;99.90;;;;;;6282408;22;20001;-84
2023/06/11 08:43:46;;;;;;;11.82;5.72;;;23.80;99.90;;;;;;6281962;22;20003;-85
2023/06/11 08:46:16;;;;;;;11.32;6.75;;;23.90;99.90;;;;;;6282602;22;19999;-84
2023/06/11 08:48:43;;;;;;;10.60;6.07;;;24.00;99.90;;;;;;6282002;22;20017;-84
2023/06/11 08:51:10;;;;;;;8.40;6.00;;;24.20;99.90;;;;;;6307880;22;20086;-84
2023/06/11 08:53:40;;;;;;;9.63;6.40;;;24.10;99.90;;;;;;6282356;22;20007;-83
2023/06/11 08:56:06;;;;;;;8.75;5.95;;;24.10;99.90;;;;;;6308862;22;19996;-84
2023/06/11 08:58:34;;;;;;;9.05;5.95;;;24.20;99.90;;;;;;6282032;22;20018;-84
2023/06/11 09:01:12;;;;;;;8.90;5.63;;;24.00;99.90;;;;;;6308106;22;20003;-84
2023/06/11 09:03:38;;;;;;;12.05;5.57;;;24.00;99.90;;;;;;6281593;22;20031;-84
2023/06/11 09:06:05;;;;;;;8.43;5.22;;;24.10;99.90;;;;;;6282195;22;20376;-83
2023/06/11 09:08:31;;;;;;;9.02;5.25;;;24.20;99.90;;;;;;6282399;22;20335;-83
2023/06/11 09:10:57;;;;;;;10.35;5.63;;;;;;;;;;6281334;22;20002;-83
2023/06/11 09:13:27;;;;;;;9.60;5.53;;;;;;;;;;6309515;22;20470;-83
2023/06/11 09:15:57;;;;;;;9.95;4.75;;;;;;;;;;6307536;22;20029;-83
2023/06/11 09:18:24;;;;;;;6.35;4.18;;;;;;;;;;6307482;22;20436;-83
2023/06/11 09:20:51;;;;;;;8.23;5.30;;;;;;;;;;6307908;22;19995;-85
2023/06/11 09:23:27;;;;;;;8.60;5.30;;;;;;;;;;6309368;22;20040;-84
2023/06/11 09:25:53;;;;;;;9.70;5.57;;;;;;;;;;6307264;22;20442;-84
2023/06/11 09:28:20;;;;;;;9.98;5.40;;;;;;;;;;6307805;22;20003;-83
2023/06/11 09:30:56;;;;;;;10.15;5.03;;;;;;;;;;6307382;22;20030;-83
2023/06/11 09:33:22;;;;;;;9.52;4.80;;;;;;;;;;6307905;22;20003;-85
2023/06/11 09:35:49;;;;;;;8.85;4.85;;;;;;;;;;6309373;22;20002;-83
2023/06/11 09:38:18;;;;;;;6.32;4.43;;;;;;;;;;6307441;22;20316;-83
2023/06/11 09:40:51;;;;;;;6.75;4.50;;;;;;;;;;6307598;22;20003;-83
2023/06/11 09:43:21;;;;;;;7.10;4.47;;;;;;;;;;6307727;22;20003;-83
2023/06/11 09:45:52;;;;;;;6.18;3.88;;;;;;;;;;6308760;22;20423;-81
2023/06/11 09:48:19;;;;;;;5.00;3.10;;;;;;;;;;6307751;22;20309;-82
2023/06/11 09:50:45;;;;;;;7.80;3.80;;;;;;;;;;6308949;22;20007;-83
2023/06/11 09:53:12;;;;;;;5.82;4.03;;;;;;;;;;6307040;22;20003;-83
2023/06/11 09:55:39;;;;;;;4.68;3.60;;;;;;;;;;6307463;22;20319;-82
2023/06/11 09:58:05;;;;;;;5.45;4.30;;;;;;;;;;6307506;22;20351;-82
2023/06/11 10:00:32;;;;;;;5.50;3.78;;;;;;;;;;6307161;22;20312;-82
2023/06/11 10:02:58;;;;;;;5.55;3.90;;;;;;;;;;6309082;22;19995;-82
2023/06/11 10:05:24;;;;;;;7.47;3.80;;;;;;;;;;6307313;22;19999;-83
2023/06/11 10:07:59;;;;;;;7.40;4.57;;;;;;;;;;6306889;22;20003;-83
2023/06/11 10:10:26;;;;;;;6.22;3.67;;;;;;;;;;6307652;22;19999;-82
2023/06/11 10:12:53;;;;;;;7.85;4.05;;;;;;;;;;6306982;22;20000;-83
2023/06/11 10:15:21;;;;;;;6.30;4.57;;;;;;;;;;6309369;22;19995;-82
2023/06/11 10:17:50;;;;;;;6.93;3.80;;;;;;;;;;6307156;22;20011;-82
2023/06/11 10:20:35;;;;;;;8.45;4.57;;;;;;;;;;6306748;22;20086;-82
2023/06/11 10:23:09;;;;;;;5.53;3.92;;;;;;;;;;6308436;22;19992;-81
2023/06/11 10:25:37;;;;;;;6.20;3.83;;;;;;;;;;6308295;22;20006;-83
2023/06/11 10:28:07;;;;;;;8.32;3.92;;;;;;;;;;6306563;22;20090;-82
2023/06/11 10:30:33;;;;;;;5.82;3.88;;;;;;;;;;6307202;22;20027;-83
2023/06/11 10:33:00;;;;;;;8.98;4.53;;;;;;;;;;6307308;22;20004;-84
2023/06/11 10:35:32;;;;;;;5.60;3.97;;;;;;;;;;6306613;22;19999;-82
2023/06/11 10:38:05;;;;;;;5.20;3.72;;;;;;;;;;6306687;22;20014;-84
2023/06/11 10:40:32;;;;;;;7.50;3.92;;;;;;;;;;6280998;22;20423;-84
2023/06/11 10:42:58;;;;;;;6.00;3.60;;;;;;;;;;6306353;22;20511;-84
2023/06/11 10:45:32;;;;;;;6.05;4.05;;;;;;;;;;6306377;22;20315;-84
2023/06/11 10:48:00;;;;;;;5.75;3.35;;;;;;;;;;6306334;22;20003;-85
2023/06/11 10:50:31;;;;;;;8.38;4.57;;;;;;;;;;6306256;22;20015;-84
2023/06/11 10:53:09;;;;;;;7.13;3.47;;;;;;;;;;6306464;22;20057;-84
2023/06/11 10:55:41;;;;;;;6.22;3.33;;;;;;;;;;6306213;22;20044;-85
2023/06/11 10:58:07;;;;;;;8.27;3.10;;;;;;;;;;6306811;22;20007;-86
2023/06/11 11:00:37;;;;;;;8.05;3.63;;;;;;;;;;6306271;22;19999;-85
2023/06/11 11:03:04;;;;;;;5.78;3.33;;;;;;;;;;6306108;22;20005;-84
2023/06/11 11:05:31;;;;;;;6.53;2.58;;;;;;;;;;6306743;22;19996;-84
2023/06/11 11:07:59;;;;;;;3.30;2.17;;;;;;;;;;6307895;22;20004;-84
2023/06/11 11:10:27;;;;;;;5.20;2.25;;;;;;;;;;6306287;22;20094;-83
2023/06/11 11:12:53;;;;;;;9.10;2.45;;;;;;;;;;6308441;22;20045;-85
2023/06/11 11:15:19;;;;;;;6.90;3.22;;;;;;;;;;6306763;22;19995;-84
2023/06/11 11:17:46;;;;;;;11.43;4.57;;;;;;;;;;6306150;22;20331;-83
2023/06/11 11:20:14;;;;;;;12.23;4.78;;;21.50;99.90;;;;;;6306014;22;20006;-84
2023/06/11 11:22:40;;;;;;;7.85;4.25;;;21.30;99.90;;;;;;6307615;22;20000;-84
2023/06/11 11:25:07;;;;;;;10.05;4.03;;;21.10;99.90;;;;;;6280738;22;20078;-84
2023/06/11 11:27:35;;;;;;;5.00;3.15;;;21.00;99.90;;;;;;6306157;22;20003;-85
2023/06/11 11:30:03;;;;;;;9.63;3.30;;;20.70;99.90;;;;;;6280193;22;20378;-84
2023/06/11 11:32:34;;;;;;;4.97;3.30;;;20.60;99.90;;;;;;6280700;22;20027;-84
2023/06/11 11:35:03;;;;;;;11.95;2.92;;;20.40;99.90;;;;;;6308114;22;19995;-85
2023/06/11 11:37:30;;;;;;;7.07;3.42;;;20.20;99.90;;;;;;6280206;22;20014;-86
2023/06/11 11:39:56;;;;;;;5.63;2.90;;;19.80;99.90;;;;;;6280833;22;20003;-85
2023/06/11 11:42:25;;;;;;;6.47;2.45;;;19.70;99.90;;;;;;6280705;22;20420;-85
2023/06/11 11:44:54;;;;;;;5.40;2.30;;;19.50;99.90;;;;;;6280000;22;20090;-86
2023/06/11 11:47:21;;;;;;;8.73;2.45;;;19.30;99.90;;;;;;6280435;22;20420;-86
2023/06/11 11:49:54;;;;;;;5.97;2.30;;;19.10;99.90;;;;;;6280070;22;20015;-85
2023/06/11 11:52:22;;;;;;;3.95;2.33;;;19.00;99.90;;;;;;6279975;22;20031;-85
2023/06/11 11:54:48;;;;;;;2.88;1.60;;;18.80;99.90;;;;;;6280502;22;20006;-84
2023/06/11 11:57:18;;;;;;;5.22;2.00;;;18.80;99.90;;;;;;6280529;22;20123;-86
2023/06/11 11:59:44;;;;;;;3.10;1.60;;;18.70;99.90;;;;;;6280689;22;20007;-86
2023/06/11 12:02:10;;;;;;;4.35;2.00;;;18.60;99.90;;;;;;6280661;22;20380;-85
2023/06/11 12:04:47;;;;;;;4.30;2.13;;;18.70;99.90;;;;;;6280354;22;20003;-85
2023/06/11 12:07:14;;;;;;;3.60;1.88;;;18.70;99.90;;;;;;6280866;22;20007;-85
2023/06/11 12:09:41;;;;;;;4.55;2.22;;;18.70;99.90;;;;;;6280726;22;20014;-85
2023/06/11 12:12:08;;;;;;;5.63;2.50;;;18.60;99.90;;;;;;6280349;22;20006;-86
2023/06/11 12:14:37;;;;;;;6.63;3.50;;;18.60;99.90;;;;;;6280713;22;20007;-85
2023/06/11 12:17:07;;;;;;;4.40;2.05;;;18.60;99.90;;;;;;6280733;22;20428;-85
2023/06/11 12:19:33;;;;;;;3.65;1.70;;;18.50;99.90;;;;;;6280387;22;20007;-86
2023/06/11 12:21:59;;;;;;;4.03;1.60;;;18.60;99.90;;;;;;6280671;22;20082;-84
2023/06/11 12:24:25;;;;;;;6.55;1.88;;;18.60;99.90;;;;;;6280556;22;20027;-84
2023/06/11 12:26:51;;;;;;;6.70;1.77;;;18.70;99.90;;;;;;6280392;22;20000;-85
2023/06/11 12:29:18;;;;;;;11.68;4.32;;;18.60;99.90;;;;;;6308053;22;19995;-85
2023/06/11 12:31:46;;;;;;;8.73;4.07;;;18.60;99.90;;;;;;6281715;22;20003;-85
2023/06/11 12:34:15;;;;;;;5.22;2.25;;;18.60;99.90;;;;;;6309644;22;20083;-85
2023/06/11 12:36:46;;;;;;;14.70;2.80;;;18.70;99.90;;;;;;6282538;22;20438;-85
2023/06/11 12:39:13;;;;;;;9.50;3.10;;;18.70;99.90;;;;;;6282626;22;20029;-83
2023/06/11 12:41:40;;;;;;;11.38;3.47;;;18.70;99.90;;;;;;6282136;22;20010;-85
2023/06/11 12:44:05;;;;;;;5.57;2.60;;;18.70;99.90;;;;;;6282324;22;20023;-85
2023/06/11 12:46:31;;;;;;;6.57;2.97;;;18.60;99.90;;;;;;6281938;22;20309;-84
2023/06/11 12:48:57;;;;;;;7.25;3.25;;;18.60;99.90;;;;;;6281705;22;20015;-84
2023/06/11 12:51:23;;;;;;;6.35;3.50;;;18.60;99.90;;;;;;6281672;22;20436;-86
2023/06/11 12:53:51;;;;;;;5.22;2.72;;;18.50;99.90;;;;;;6282177;22;20479;-86
2023/06/11 12:56:17;;;;;;;6.05;3.08;;;18.60;99.90;;;;;;6282066;22;20002;-85
2023/06/11 12:58:43;;;;;;;4.78;1.95;;;18.60;99.90;;;;;;6282047;22;20011;-85